Time;durP1;ratioP1;P1;durP2;ratioP2;P2;SDS_P1;SDS_P2;PMS_P1;PMS_P2;Temp;Humidity;BMP_temperature;BMP_pressure;BME280_temperature;BME280_humidity;BME280_pressure;Samples;Min_cycle;Max_cycle;Signal;HPM_P1;HPM_P2
2021/12/20 00:00:22;;;;;;;16.60;11.50;;;4.60;99.90;;;;;;4998051;28;20440;-51
2021/12/20 00:02:54;;;;;;;15.07;8.67;;;4.60;99.90;;;;;;4996268;28;20304;-50
2021/12/20 00:05:21;;;;;;;15.87;10.00;;;4.40;99.90;;;;;;4991423;28;20598;-50
2021/12/20 00:07:47;;;;;;;16.50;11.13;;;4.50;99.90;;;;;;4996447;28;20478;-51
2021/12/20 00:10:14;;;;;;;15.53;9.97;;;4.40;99.90;;;;;;4999844;28;20961;-50
2021/12/20 00:12:40;;;;;;;15.17;10.50;;;4.50;99.90;;;;;;4996169;28;20456;-52
2021/12/20 00:15:07;;;;;;;15.53;9.00;;;4.50;99.90;;;;;;4998189;28;20466;-51
2021/12/20 00:17:33;;;;;;;19.60;11.20;;;4.50;99.90;;;;;;4995734;28;20472;-50
2021/12/20 00:19:59;;;;;;;15.80;10.43;;;4.50;99.90;;;;;;4996337;28;20445;-50
2021/12/20 00:22:24;;;;;;;18.20;11.10;;;4.40;99.90;;;;;;4997772;28;20429;-48
2021/12/20 00:24:50;;;;;;;19.83;11.37;;;4.50;99.90;;;;;;4997672;28;20193;-49
2021/12/20 00:27:19;;;;;;;17.00;11.20;;;4.40;99.90;;;;;;4990965;28;20658;-48
2021/12/20 00:29:46;;;;;;;16.03;10.90;;;4.40;99.90;;;;;;4993001;28;20652;-48
2021/12/20 00:32:13;;;;;;;18.37;11.37;;;4.50;99.90;;;;;;4997346;28;20440;-49
2021/12/20 00:34:40;;;;;;;17.87;11.07;;;4.60;99.90;;;;;;4996808;28;20468;-49
2021/12/20 00:40:19;;;;;;;18.40;11.10;;;4.60;99.90;;;;;;4997712;28;20472;-50
2021/12/20 00:42:36;;;;;;;21.40;11.40;;;4.60;99.90;;;;;;4994337;28;20478;-51
2021/12/20 00:45:02;;;;;;;15.67;10.40;;;4.60;99.90;;;;;;4979559;28;20828;-51
2021/12/20 00:47:28;;;;;;;24.83;11.83;;;4.70;99.90;;;;;;4994179;28;20250;-47
2021/12/20 00:49:54;;;;;;;17.43;10.37;;;4.70;99.90;;;;;;4995715;28;20551;-47
2021/12/20 00:52:20;;;;;;;21.67;11.90;;;4.60;99.90;;;;;;4995703;28;20642;-46
2021/12/20 00:54:45;;;;;;;18.40;11.93;;;4.60;99.90;;;;;;4977996;28;20631;-50
2021/12/20 00:57:11;;;;;;;21.17;11.83;;;4.40;99.90;;;;;;4998618;28;20502;-47
2021/12/20 00:59:37;;;;;;;20.87;11.13;;;4.40;99.90;;;;;;4997214;28;20221;-50
2021/12/20 01:02:03;;;;;;;17.97;10.70;;;4.40;99.90;;;;;;4982872;28;20261;-49
2021/12/20 01:04:28;;;;;;;18.70;12.23;;;4.30;99.90;;;;;;4996767;28;20514;-47
2021/12/20 01:06:54;;;;;;;21.97;12.93;;;4.40;99.90;;;;;;4997274;28;20267;-50
2021/12/20 01:09:19;;;;;;;20.83;11.77;;;4.40;99.90;;;;;;5000385;28;20224;-48
2021/12/20 01:11:51;;;;;;;20.20;12.80;;;4.30;99.90;;;;;;4991649;28;20413;-47
2021/12/20 01:14:22;;;;;;;19.30;11.50;;;4.30;99.90;;;;;;4998020;28;20811;-48
2021/12/20 01:16:48;;;;;;;21.03;12.70;;;4.40;99.90;;;;;;4991775;28;20899;-49
2021/12/20 01:19:14;;;;;;;20.83;13.90;;;4.40;99.90;;;;;;5002831;28;20932;-48
2021/12/20 01:21:40;;;;;;;22.77;12.17;;;4.40;99.90;;;;;;4999290;28;20432;-47
2021/12/20 01:24:06;;;;;;;23.50;12.20;;;4.40;99.90;;;;;;4996888;28;20320;-48
2021/12/20 01:26:31;;;;;;;21.67;12.33;;;4.30;99.90;;;;;;5000738;28;20209;-47
2021/12/20 01:28:57;;;;;;;20.90;12.13;;;4.30;99.90;;;;;;4996039;28;20471;-46
2021/12/20 01:31:23;;;;;;;24.60;13.87;;;4.30;99.90;;;;;;5001990;28;20197;-49
2021/12/20 01:33:49;;;;;;;27.77;13.00;;;4.40;99.90;;;;;;4991673;28;20640;-50
2021/12/20 01:36:14;;;;;;;25.70;12.83;;;4.40;99.90;;;;;;4996822;28;20502;-48
2021/12/20 01:38:40;;;;;;;22.10;12.90;;;4.40;99.90;;;;;;4986762;28;20565;-49
2021/12/20 01:41:08;;;;;;;20.20;11.67;;;4.40;99.90;;;;;;5002235;28;20644;-52
2021/12/20 01:43:34;;;;;;;27.40;13.93;;;4.30;99.90;;;;;;5003141;28;20437;-48
2021/12/20 01:46:00;;;;;;;24.97;13.30;;;4.40;99.90;;;;;;5001651;28;21141;-48
2021/12/20 01:48:26;;;;;;;26.77;12.33;;;4.40;99.90;;;;;;4998278;28;20227;-47
2021/12/20 01:53:35;;;;;;;27.03;13.50;;;4.50;99.90;;;;;;5000577;28;20437;-48
2021/12/20 01:56:02;;;;;;;23.90;11.90;;;4.30;99.90;;;;;;4996160;28;20483;-48
2021/12/20 01:58:29;;;;;;;29.50;15.73;;;4.20;99.90;;;;;;5002103;28;20475;-48
2021/12/20 02:03:39;;;;;;;30.33;14.80;;;4.20;99.90;;;;;;4998453;28;20441;-52
2021/12/20 02:06:11;;;;;;;39.00;16.60;;;4.20;99.90;;;;;;4992496;28;20459;-47
2021/12/20 02:08:37;;;;;;;26.90;14.23;;;4.20;99.90;;;;;;4998423;28;20471;-47
2021/12/20 02:11:09;;;;;;;29.57;15.43;;;4.30;99.90;;;;;;4995416;28;20961;-50
2021/12/20 02:13:38;;;;;;;33.70;17.10;;;4.40;99.90;;;;;;4997169;28;20866;-51
2021/12/20 02:16:04;;;;;;;28.40;15.07;;;4.40;99.90;;;;;;4999192;28;20452;-53
2021/12/20 02:18:31;;;;;;;37.50;16.80;;;4.40;99.90;;;;;;4998170;28;20567;-51
2021/12/20 02:20:58;;;;;;;32.07;17.10;;;4.40;99.90;;;;;;4998838;28;20468;-50
2021/12/20 02:23:24;;;;;;;27.77;14.43;;;4.30;99.90;;;;;;4997941;28;20526;-52
2021/12/20 02:25:50;;;;;;;29.43;15.37;;;4.30;99.90;;;;;;4999398;28;21024;-49
2021/12/20 02:28:18;;;;;;;29.33;14.80;;;4.30;99.90;;;;;;4979061;28;20452;-52
2021/12/20 02:38:50;;;;;;;30.73;14.13;;;4.20;99.90;;;;;;4998891;28;20467;-47
2021/12/20 02:41:30;;;;;;;32.23;15.27;;;4.20;99.90;;;;;;4997795;28;20443;-51
2021/12/20 02:44:03;;;;;;;33.30;14.90;;;4.20;99.90;;;;;;4997190;28;21089;-48
2021/12/20 02:49:02;;;;;;;28.93;14.03;;;4.40;99.90;;;;;;4999901;28;20471;-49
2021/12/20 02:51:28;;;;;;;28.60;15.40;;;4.40;99.90;;;;;;4999323;28;20475;-47
2021/12/20 02:53:56;;;;;;;33.47;14.17;;;4.50;99.90;;;;;;4995735;28;20482;-48
2021/12/20 02:56:22;;;;;;;32.33;14.60;;;4.60;99.90;;;;;;4995341;28;20642;-49
2021/12/20 02:58:48;;;;;;;32.50;14.87;;;4.50;99.90;;;;;;4999227;28;20480;-47
2021/12/20 03:01:14;;;;;;;35.10;15.73;;;4.40;99.90;;;;;;4995823;28;20917;-47
2021/12/20 03:03:40;;;;;;;30.93;16.70;;;4.40;99.90;;;;;;4993689;28;20378;-47
2021/12/20 03:06:18;;;;;;;32.57;14.77;;;4.50;99.90;;;;;;4997327;28;20673;-47
2021/12/20 03:08:47;;;;;;;30.60;15.53;;;4.50;99.90;;;;;;4996556;28;20478;-46
2021/12/20 03:11:13;;;;;;;33.73;16.23;;;4.40;99.90;;;;;;4995981;28;20480;-45
2021/12/20 03:13:38;;;;;;;32.07;15.80;;;4.40;99.90;;;;;;4998270;28;20499;-48
2021/12/20 03:16:05;;;;;;;30.73;14.83;;;4.40;99.90;;;;;;4998949;28;20452;-48
2021/12/20 03:18:30;;;;;;;31.37;15.87;;;4.40;99.90;;;;;;5001092;28;20470;-47
2021/12/20 03:20:56;;;;;;;28.60;15.30;;;4.20;99.90;;;;;;5000088;28;20891;-48
2021/12/20 03:23:22;;;;;;;35.43;17.03;;;4.10;99.90;;;;;;4996277;28;20197;-47
2021/12/20 03:25:47;;;;;;;38.23;17.70;;;4.10;99.90;;;;;;4992658;28;20203;-47
2021/12/20 03:28:13;;;;;;;36.60;17.50;;;4.00;99.90;;;;;;4977154;28;20188;-49
2021/12/20 03:30:39;;;;;;;32.73;15.37;;;4.10;99.90;;;;;;4997759;28;20519;-49
2021/12/20 03:33:04;;;;;;;35.10;15.50;;;4.00;99.90;;;;;;4998160;28;20244;-47
2021/12/20 03:35:30;;;;;;;34.33;15.70;;;4.10;99.90;;;;;;4999235;28;20193;-48
2021/12/20 03:37:56;;;;;;;39.40;16.10;;;4.10;99.90;;;;;;5002913;28;20744;-49
2021/12/20 03:40:22;;;;;;;32.07;15.80;;;4.10;99.90;;;;;;5000746;28;21216;-48
2021/12/20 03:42:48;;;;;;;34.53;16.70;;;4.00;99.90;;;;;;5002273;28;20436;-47
2021/12/20 03:45:14;;;;;;;31.37;16.00;;;4.00;99.90;;;;;;5001795;28;20192;-51
2021/12/20 03:47:41;;;;;;;38.37;19.00;;;4.00;99.90;;;;;;5002975;28;20189;-48
2021/12/20 03:50:08;;;;;;;37.10;16.83;;;3.90;99.90;;;;;;5003390;28;20440;-48
2021/12/20 03:52:34;;;;;;;37.83;16.23;;;3.90;99.90;;;;;;4999899;28;20488;-49
2021/12/20 03:55:00;;;;;;;33.47;16.30;;;3.90;99.90;;;;;;5004895;28;20472;-46
2021/12/20 03:57:26;;;;;;;32.87;16.57;;;4.00;99.90;;;;;;5002957;28;20272;-47
2021/12/20 03:59:53;;;;;;;36.17;17.07;;;4.00;99.90;;;;;;4999816;28;20267;-50
2021/12/20 04:02:21;;;;;;;34.03;16.23;;;4.00;99.90;;;;;;5001140;28;20448;-51
2021/12/20 04:04:47;;;;;;;33.93;13.93;;;4.00;99.90;;;;;;4997815;28;20437;-49
2021/12/20 04:07:12;;;;;;;34.20;17.20;;;4.00;99.90;;;;;;4997556;28;20495;-48
2021/12/20 04:09:38;;;;;;;37.63;17.43;;;4.10;99.90;;;;;;5001365;28;20861;-48
2021/12/20 04:12:04;;;;;;;30.37;14.87;;;4.00;99.90;;;;;;4999333;28;20200;-52
2021/12/20 04:14:30;;;;;;;37.67;17.10;;;4.10;99.90;;;;;;5001243;28;20193;-50
2021/12/20 04:16:55;;;;;;;30.80;15.43;;;4.20;99.90;;;;;;5000298;28;20289;-49
2021/12/20 04:19:21;;;;;;;37.37;16.97;;;4.20;99.90;;;;;;5002091;28;20243;-48
2021/12/20 04:21:46;;;;;;;34.30;16.43;;;4.10;99.90;;;;;;4999071;28;20654;-49
2021/12/20 04:24:12;;;;;;;36.13;17.70;;;4.20;99.90;;;;;;4996655;28;20204;-50
2021/12/20 04:26:37;;;;;;;31.67;17.20;;;4.20;99.90;;;;;;4998049;28;20204;-46
2021/12/20 04:29:03;;;;;;;34.23;15.73;;;4.20;99.90;;;;;;4998749;28;20254;-49
2021/12/20 04:31:29;;;;;;;34.20;16.70;;;4.10;99.90;;;;;;5002285;28;20288;-50
2021/12/20 04:33:55;;;;;;;30.27;16.83;;;4.30;99.90;;;;;;4999012;28;20208;-47
2021/12/20 04:36:20;;;;;;;29.70;16.20;;;4.20;99.90;;;;;;4998650;28;20223;-49
2021/12/20 04:38:46;;;;;;;34.57;17.07;;;4.20;99.90;;;;;;4997248;28;20610;-48
2021/12/20 04:41:12;;;;;;;36.60;17.03;;;4.30;99.90;;;;;;5000774;28;20188;-46
2021/12/20 04:43:38;;;;;;;34.07;16.40;;;4.30;99.90;;;;;;4998035;28;20933;-45
2021/12/20 04:46:03;;;;;;;30.37;14.90;;;4.30;99.90;;;;;;4998358;28;20209;-47
2021/12/20 04:48:29;;;;;;;31.93;14.90;;;4.30;99.90;;;;;;4998505;28;20194;-47
2021/12/20 04:50:55;;;;;;;29.00;13.90;;;4.40;99.90;;;;;;4999010;28;20246;-47
2021/12/20 04:53:20;;;;;;;31.17;15.20;;;4.30;99.90;;;;;;4997612;28;20235;-47
2021/12/20 04:55:46;;;;;;;27.73;14.50;;;4.30;99.90;;;;;;4984997;28;20263;-48
2021/12/20 04:58:14;;;;;;;33.00;15.07;;;4.40;99.90;;;;;;4997919;28;20215;-49
2021/12/20 05:00:40;;;;;;;35.30;15.10;;;4.40;99.90;;;;;;4982021;28;20280;-49
2021/12/20 05:03:07;;;;;;;35.53;15.73;;;4.30;99.90;;;;;;4980503;28;20430;-51
2021/12/20 05:05:33;;;;;;;32.40;15.77;;;4.30;99.90;;;;;;4997468;28;20440;-51
2021/12/20 05:08:00;;;;;;;30.20;16.50;;;4.30;99.90;;;;;;4997877;28;20880;-48
2021/12/20 05:10:37;;;;;;;33.67;16.03;;;4.30;99.90;;;;;;4983722;28;20448;-52
2021/12/20 05:13:09;;;;;;;34.93;15.60;;;4.30;99.90;;;;;;5000533;28;20441;-50
2021/12/20 05:15:36;;;;;;;27.70;15.00;;;4.30;99.90;;;;;;4999715;28;20444;-50
2021/12/20 05:18:02;;;;;;;37.40;16.10;;;4.30;99.90;;;;;;5001592;28;20533;-49
2021/12/20 05:20:28;;;;;;;33.93;16.50;;;4.20;99.90;;;;;;4979057;28;20441;-52
2021/12/20 05:22:55;;;;;;;30.97;15.50;;;4.20;99.90;;;;;;5000248;28;20436;-52
2021/12/20 05:25:21;;;;;;;32.13;15.30;;;4.40;99.90;;;;;;4996952;28;20193;-52
2021/12/20 05:27:47;;;;;;;33.87;15.80;;;4.40;99.90;;;;;;4999426;28;20520;-52
2021/12/20 05:30:14;;;;;;;34.77;16.37;;;4.30;99.90;;;;;;4998982;28;20482;-51
2021/12/20 05:32:40;;;;;;;32.53;14.43;;;4.40;99.90;;;;;;4996957;28;20452;-48
2021/12/20 05:35:08;;;;;;;32.03;13.50;;;4.40;99.90;;;;;;4999010;28;20944;-51
2021/12/20 05:37:34;;;;;;;26.80;14.20;;;4.40;99.90;;;;;;4998741;28;20487;-50
2021/12/20 05:40:00;;;;;;;39.60;16.83;;;4.40;99.90;;;;;;4999513;28;20432;-48
2021/12/20 05:42:25;;;;;;;29.43;13.33;;;4.40;99.90;;;;;;4997098;28;20432;-51
2021/12/20 05:44:51;;;;;;;30.50;15.77;;;4.30;99.90;;;;;;4980682;28;20231;-50
2021/12/20 05:47:22;;;;;;;29.70;15.67;;;4.30;99.90;;;;;;4998879;28;20216;-52
2021/12/20 05:49:50;;;;;;;29.93;16.57;;;4.40;99.90;;;;;;4997430;28;20236;-51
2021/12/20 05:52:16;;;;;;;30.63;14.47;;;4.40;99.90;;;;;;5000666;28;20483;-51
2021/12/20 05:54:42;;;;;;;28.93;13.60;;;4.30;99.90;;;;;;4981235;28;20938;-51
2021/12/20 05:57:07;;;;;;;30.50;14.70;;;4.20;99.90;;;;;;4998127;28;20464;-50
2021/12/20 05:59:33;;;;;;;26.50;14.23;;;4.40;99.90;;;;;;4998740;28;20229;-51
2021/12/20 06:01:59;;;;;;;28.10;13.77;;;4.40;99.90;;;;;;4979246;28;20302;-48
2021/12/20 06:04:25;;;;;;;32.17;16.10;;;4.30;99.90;;;;;;4997014;28;20916;-51
2021/12/20 06:06:50;;;;;;;30.87;15.37;;;4.40;99.90;;;;;;4996087;28;20316;-50
2021/12/20 06:09:16;;;;;;;30.67;14.57;;;4.30;99.90;;;;;;4999012;28;20193;-50
2021/12/20 06:11:42;;;;;;;29.63;15.40;;;4.30;99.90;;;;;;4999907;28;20204;-52
2021/12/20 06:14:07;;;;;;;30.00;14.67;;;4.30;99.90;;;;;;4993151;28;20556;-50
2021/12/20 06:16:33;;;;;;;29.07;14.47;;;4.20;99.90;;;;;;4978354;28;20295;-49
2021/12/20 06:18:59;;;;;;;29.50;15.30;;;4.20;99.90;;;;;;4992353;28;20212;-50
2021/12/20 06:21:24;;;;;;;26.50;15.40;;;4.40;99.90;;;;;;4998810;28;20211;-51
2021/12/20 06:23:50;;;;;;;29.50;13.83;;;4.40;99.90;;;;;;4997601;28;20185;-49
2021/12/20 06:26:16;;;;;;;29.47;14.23;;;4.40;99.90;;;;;;4997112;28;20220;-46
2021/12/20 06:28:42;;;;;;;30.10;15.63;;;4.50;99.90;;;;;;4999056;28;20205;-50
2021/12/20 06:31:08;;;;;;;28.67;14.40;;;4.50;99.90;;;;;;4996519;28;20461;-51
2021/12/20 06:33:34;;;;;;;29.80;14.30;;;4.40;99.90;;;;;;4999728;28;20443;-47
2021/12/20 06:35:59;;;;;;;35.77;15.53;;;4.40;99.90;;;;;;4987737;28;20234;-49
2021/12/20 06:38:25;;;;;;;28.40;14.77;;;4.40;99.90;;;;;;4982047;28;20214;-47
2021/12/20 06:40:52;;;;;;;31.70;15.53;;;4.40;99.90;;;;;;4999200;28;20192;-51
2021/12/20 06:43:19;;;;;;;27.33;14.07;;;4.50;99.90;;;;;;5000403;28;20236;-46
2021/12/20 06:45:45;;;;;;;30.17;14.53;;;4.50;99.90;;;;;;4997209;28;20461;-50
2021/12/20 06:48:11;;;;;;;29.47;14.90;;;4.50;99.90;;;;;;4999901;28;20459;-47
2021/12/20 06:50:37;;;;;;;26.80;14.40;;;4.50;99.90;;;;;;4996317;28;20433;-51
2021/12/20 06:53:05;;;;;;;35.30;15.87;;;4.50;99.90;;;;;;4999585;28;21313;-52
2021/12/20 06:55:32;;;;;;;33.70;16.90;;;4.50;99.90;;;;;;4997905;28;20186;-49
2021/12/20 06:57:58;;;;;;;28.63;15.33;;;4.40;99.90;;;;;;4997557;28;20476;-49
2021/12/20 07:00:23;;;;;;;28.30;14.63;;;4.40;99.90;;;;;;4982486;28;20437;-50
2021/12/20 07:02:49;;;;;;;33.63;17.27;;;4.30;99.90;;;;;;4997771;28;20494;-49
2021/12/20 07:05:15;;;;;;;29.10;15.40;;;4.30;99.90;;;;;;4981572;28;20193;-52
2021/12/20 07:07:41;;;;;;;30.00;16.60;;;4.50;99.90;;;;;;5000034;28;20189;-49
2021/12/20 07:10:07;;;;;;;30.00;16.10;;;4.50;99.90;;;;;;4998768;28;20925;-53
2021/12/20 07:12:35;;;;;;;32.77;17.80;;;4.50;99.90;;;;;;5006690;28;20185;-50
2021/12/20 07:15:01;;;;;;;29.53;14.80;;;4.50;99.90;;;;;;5002126;28;20467;-49
2021/12/20 07:17:27;;;;;;;30.50;15.07;;;4.60;99.90;;;;;;5006502;28;20456;-49
2021/12/20 07:19:52;;;;;;;31.53;15.30;;;4.50;99.90;;;;;;5004910;28;20428;-50
2021/12/20 07:22:18;;;;;;;29.30;16.50;;;4.60;99.90;;;;;;4983283;28;20547;-49
2021/12/20 07:24:43;;;;;;;30.73;16.10;;;4.60;99.90;;;;;;5005946;28;20656;-46
2021/12/20 07:27:10;;;;;;;30.90;15.10;;;4.70;99.90;;;;;;5002469;28;20209;-53
2021/12/20 07:29:37;;;;;;;28.27;14.40;;;4.70;99.90;;;;;;5002302;28;20586;-49
2021/12/20 07:32:03;;;;;;;36.70;16.60;;;4.80;99.90;;;;;;5005399;28;20546;-53
2021/12/20 07:34:29;;;;;;;32.90;16.17;;;4.70;99.90;;;;;;4985320;28;20515;-51
2021/12/20 07:36:55;;;;;;;29.40;15.60;;;4.50;99.90;;;;;;5001207;28;20676;-49
2021/12/20 07:39:20;;;;;;;29.27;15.17;;;4.60;99.90;;;;;;5001297;28;20216;-49
2021/12/20 07:41:46;;;;;;;29.90;14.57;;;4.70;99.90;;;;;;5000626;28;20190;-50
2021/12/20 07:44:12;;;;;;;30.50;16.63;;;4.60;99.90;;;;;;5002029;28;20255;-53
2021/12/20 07:46:37;;;;;;;30.20;14.80;;;4.60;99.90;;;;;;5002719;28;20454;-48
2021/12/20 07:49:03;;;;;;;29.17;15.33;;;4.70;99.90;;;;;;5001759;28;20325;-51
2021/12/20 07:51:29;;;;;;;35.47;16.70;;;4.50;99.90;;;;;;4999714;28;20225;-51
2021/12/20 07:53:54;;;;;;;27.60;16.03;;;4.70;99.90;;;;;;5000455;28;20189;-46
2021/12/20 07:56:20;;;;;;;33.30;15.80;;;4.80;99.90;;;;;;4997395;28;20271;-50
2021/12/20 07:58:45;;;;;;;35.93;17.30;;;4.80;99.90;;;;;;4982601;28;20232;-48
2021/12/20 08:01:11;;;;;;;32.67;16.90;;;4.80;99.90;;;;;;5002208;28;20185;-52
2021/12/20 08:03:38;;;;;;;23.97;14.40;;;4.80;99.90;;;;;;5004176;28;20725;-46
2021/12/20 08:06:05;;;;;;;29.30;17.27;;;5.00;99.90;;;;;;4995367;28;20237;-50
2021/12/20 08:08:30;;;;;;;34.60;16.57;;;5.00;99.90;;;;;;4999061;28;20459;-49
2021/12/20 08:10:57;;;;;;;32.53;15.03;;;5.00;99.90;;;;;;4999427;28;20435;-48
2021/12/20 08:13:22;;;;;;;32.23;16.13;;;5.00;99.90;;;;;;5003538;28;20749;-49
2021/12/20 08:15:48;;;;;;;28.80;16.70;;;5.10;99.90;;;;;;4997660;28;20452;-49
2021/12/20 08:18:14;;;;;;;29.30;15.50;;;5.10;99.90;;;;;;4999297;28;20459;-48
2021/12/20 08:20:40;;;;;;;32.50;15.03;;;5.20;99.90;;;;;;5000399;28;20189;-48
2021/12/20 08:23:05;;;;;;;30.57;16.57;;;5.10;99.90;;;;;;4996342;28;20196;-48
2021/12/20 08:25:31;;;;;;;32.00;16.87;;;5.20;99.90;;;;;;5003652;28;20185;-50
2021/12/20 08:27:57;;;;;;;34.23;17.30;;;5.00;99.90;;;;;;5002919;28;20428;-46
2021/12/20 08:30:23;;;;;;;29.63;16.00;;;5.00;99.90;;;;;;5000286;28;20445;-47
2021/12/20 08:32:50;;;;;;;27.97;15.90;;;4.90;99.90;;;;;;4999993;28;20189;-47
2021/12/20 08:35:16;;;;;;;26.80;15.20;;;5.10;99.90;;;;;;4998804;28;20440;-49
2021/12/20 08:37:42;;;;;;;32.17;16.90;;;5.00;99.90;;;;;;5002953;28;20487;-47
2021/12/20 08:40:13;;;;;;;30.43;16.63;;;5.00;99.90;;;;;;5002596;28;20944;-50
2021/12/20 08:42:41;;;;;;;29.87;14.90;;;5.20;99.90;;;;;;5001111;28;20523;-50
2021/12/20 08:45:08;;;;;;;34.07;16.67;;;5.40;99.90;;;;;;5002346;28;20432;-52
2021/12/20 08:47:34;;;;;;;28.70;14.73;;;5.40;99.90;;;;;;5001484;28;20469;-50
2021/12/20 08:50:01;;;;;;;29.93;14.80;;;5.20;99.90;;;;;;5002846;28;20440;-48
2021/12/20 08:52:27;;;;;;;30.87;15.40;;;5.00;99.90;;;;;;5000936;28;20432;-51
2021/12/20 08:54:53;;;;;;;31.10;16.70;;;5.00;99.90;;;;;;5001736;28;20534;-49
2021/12/20 08:57:18;;;;;;;31.23;15.73;;;5.10;99.90;;;;;;5000498;28;20561;-51
2021/12/20 08:59:44;;;;;;;29.27;16.20;;;5.00;99.90;;;;;;5001344;28;20537;-50
2021/12/20 09:02:11;;;;;;;26.40;15.43;;;4.90;99.90;;;;;;5001213;28;20190;-49
2021/12/20 09:04:37;;;;;;;25.83;15.00;;;4.90;99.90;;;;;;5003043;28;20241;-50
2021/12/20 09:07:04;;;;;;;26.20;15.37;;;4.80;99.90;;;;;;5002617;28;20463;-52
2021/12/20 09:09:36;;;;;;;31.27;16.27;;;4.90;99.90;;;;;;5002428;28;20436;-50
2021/12/20 09:12:03;;;;;;;29.83;16.03;;;4.90;99.90;;;;;;5001333;28;20889;-49
2021/12/20 09:14:29;;;;;;;31.47;16.67;;;4.90;99.90;;;;;;5000910;28;20472;-47
2021/12/20 09:16:54;;;;;;;26.10;16.13;;;4.90;99.90;;;;;;4999762;28;20798;-49
2021/12/20 09:19:20;;;;;;;33.23;17.30;;;4.90;99.90;;;;;;5003318;28;21013;-52
2021/12/20 09:21:48;;;;;;;31.07;15.93;;;5.00;99.90;;;;;;5001014;28;20366;-49
2021/12/20 09:24:14;;;;;;;37.83;17.33;;;4.90;99.90;;;;;;4998894;28;20197;-52
2021/12/20 09:26:39;;;;;;;31.23;16.03;;;5.00;99.90;;;;;;4998707;28;20439;-50
2021/12/20 09:29:05;;;;;;;29.73;16.30;;;5.10;99.90;;;;;;4994614;28;20335;-48
2021/12/20 09:31:31;;;;;;;28.70;16.17;;;5.40;99.90;;;;;;4999355;28;20231;-51
2021/12/20 09:33:58;;;;;;;28.03;15.20;;;5.60;99.90;;;;;;4984631;28;20219;-51
2021/12/20 09:36:29;;;;;;;27.07;15.80;;;5.60;99.90;;;;;;4979801;28;20512;-48
2021/12/20 09:38:55;;;;;;;25.50;15.53;;;5.80;99.90;;;;;;4998108;28;20554;-49
2021/12/20 09:44:09;;;;;;;29.10;17.37;;;5.80;99.90;;;;;;4998228;28;20429;-52
2021/12/20 09:46:34;;;;;;;30.53;15.47;;;5.40;99.90;;;;;;5002372;28;20539;-48
2021/12/20 09:49:00;;;;;;;27.83;15.60;;;5.30;99.90;;;;;;4978113;28;20466;-50
2021/12/20 09:51:26;;;;;;;27.27;16.30;;;5.20;99.90;;;;;;4998095;28;20205;-48
2021/12/20 09:53:55;;;;;;;30.00;15.80;;;5.50;99.90;;;;;;4995738;28;20448;-49
2021/12/20 09:56:24;;;;;;;29.97;17.07;;;5.70;99.90;;;;;;4997648;28;20606;-49
2021/12/20 09:58:57;;;;;;;27.57;16.73;;;5.70;99.90;;;;;;4996962;28;20468;-50
2021/12/20 10:01:24;;;;;;;31.40;16.07;;;5.90;99.90;;;;;;4998924;28;20452;-49
2021/12/20 10:03:50;;;;;;;41.53;17.10;;;6.20;99.90;;;;;;4997534;28;20466;-47
2021/12/20 10:06:16;;;;;;;30.17;17.10;;;6.30;99.90;;;;;;4996721;28;21092;-47
2021/12/20 10:08:53;;;;;;;34.77;17.87;;;6.30;99.90;;;;;;4995729;28;20442;-47
2021/12/20 10:11:25;;;;;;;29.57;16.80;;;6.40;99.90;;;;;;4997549;28;20462;-48
2021/12/20 10:14:08;;;;;;;28.37;16.90;;;6.60;99.90;;;;;;4997102;28;20428;-49
2021/12/20 10:16:35;;;;;;;29.63;16.13;;;6.50;99.90;;;;;;4996079;28;20911;-49
2021/12/20 10:19:04;;;;;;;31.50;17.60;;;6.50;99.90;;;;;;5002776;28;20475;-51
2021/12/20 10:21:39;;;;;;;30.50;16.80;;;6.50;99.90;;;;;;5000628;28;20431;-46
2021/12/20 10:24:05;;;;;;;31.47;16.90;;;6.40;99.90;;;;;;4980247;28;20465;-48
2021/12/20 10:26:41;;;;;;;25.53;14.77;;;6.60;99.90;;;;;;4994416;28;20484;-46
2021/12/20 10:29:19;;;;;;;31.23;16.53;;;6.50;99.90;;;;;;4996295;28;20531;-47
2021/12/20 10:31:44;;;;;;;32.03;17.43;;;6.70;99.90;;;;;;4979906;28;20443;-47
2021/12/20 10:34:10;;;;;;;33.10;19.17;;;6.80;99.90;;;;;;5001228;28;20972;-49
2021/12/20 10:36:36;;;;;;;34.83;19.60;;;6.40;99.90;;;;;;4996852;28;20686;-47
2021/12/20 10:39:04;;;;;;;28.40;16.87;;;6.30;99.90;;;;;;4998165;28;20243;-48
2021/12/20 10:41:37;;;;;;;32.70;17.60;;;6.40;99.90;;;;;;4997036;28;20177;-51
2021/12/20 10:44:18;;;;;;;31.93;18.23;;;6.70;99.90;;;;;;4997842;28;20436;-46
2021/12/20 10:46:52;;;;;;;32.17;18.87;;;6.90;99.90;;;;;;4998081;28;20831;-48
2021/12/20 10:49:24;;;;;;;28.43;16.93;;;6.80;99.90;;;;;;4998978;28;20503;-51
2021/12/20 10:51:51;;;;;;;33.00;19.30;;;6.90;99.90;;;;;;5003699;28;20531;-49
2021/12/20 10:54:21;;;;;;;36.73;18.27;;;7.20;99.90;;;;;;4996846;28;20940;-48
2021/12/20 10:56:51;;;;;;;33.60;18.60;;;7.30;99.90;;;;;;4997874;28;20494;-48
2021/12/20 10:59:21;;;;;;;33.40;18.30;;;7.40;99.90;;;;;;4999744;28;20479;-47
2021/12/20 11:04:36;;;;;;;28.40;16.90;;;7.40;99.90;;;;;;4995829;28;20546;-51
2021/12/20 11:09:46;;;;;;;31.40;16.13;;;7.60;99.90;;;;;;4995577;28;21084;-53
2021/12/20 11:12:16;;;;;;;31.67;15.50;;;7.70;99.90;;;;;;5002823;28;20858;-51
2021/12/20 11:14:47;;;;;;;27.60;14.40;;;7.70;99.90;;;;;;4998588;28;20429;-49
2021/12/20 11:17:19;;;;;;;26.13;15.93;;;7.80;99.90;;;;;;5001494;28;20518;-50
2021/12/20 11:19:53;;;;;;;31.87;18.33;;;7.70;99.90;;;;;;4998792;28;20472;-48
2021/12/20 11:22:24;;;;;;;28.50;16.00;;;7.70;99.90;;;;;;5002779;28;20442;-50
2021/12/20 11:24:58;;;;;;;26.80;15.90;;;7.60;99.90;;;;;;4999673;28;20488;-49
2021/12/20 11:27:52;;;;;;;25.73;16.53;;;7.70;99.90;;;;;;4999957;28;20452;-50
2021/12/20 11:30:22;;;;;;;24.03;13.60;;;7.70;99.90;;;;;;5000611;28;20432;-49
2021/12/20 11:32:49;;;;;;;26.93;16.43;;;7.70;99.90;;;;;;5005351;28;20432;-48
2021/12/20 11:35:17;;;;;;;33.17;16.30;;;7.70;99.90;;;;;;5001592;28;20567;-49
2021/12/20 11:37:43;;;;;;;27.97;16.40;;;7.70;99.90;;;;;;4994278;28;20614;-48
2021/12/20 11:40:12;;;;;;;26.67;15.60;;;7.70;99.90;;;;;;5003634;28;20834;-50
2021/12/20 11:42:37;;;;;;;27.70;15.13;;;7.70;99.90;;;;;;5002900;28;20568;-51
2021/12/20 11:45:07;;;;;;;27.43;14.57;;;7.80;99.90;;;;;;4998613;28;20870;-48
2021/12/20 11:48:06;;;;;;;28.20;14.67;;;7.70;99.90;;;;;;4999671;28;20237;-56
2021/12/20 11:50:38;;;;;;;21.60;13.90;;;7.70;99.90;;;;;;5000653;28;20959;-47
2021/12/20 11:53:05;;;;;;;21.53;13.67;;;7.70;99.90;;;;;;5001282;28;20459;-50
2021/12/20 11:55:31;;;;;;;30.40;16.20;;;7.70;99.90;;;;;;5001882;28;20439;-52
2021/12/20 11:58:06;;;;;;;25.97;15.10;;;7.70;99.90;;;;;;5006314;28;20474;-49
2021/12/20 12:00:39;;;;;;;30.10;15.80;;;7.80;99.90;;;;;;5001071;28;20200;-49
2021/12/20 12:03:19;;;;;;;26.00;14.77;;;7.80;99.90;;;;;;4993104;28;20774;-50
2021/12/20 12:06:06;;;;;;;32.00;15.63;;;7.90;99.90;;;;;;5004547;28;20884;-50
2021/12/20 12:08:52;;;;;;;27.37;14.57;;;8.00;99.90;;;;;;4998962;28;20466;-49
2021/12/20 12:11:19;;;;;;;26.83;14.73;;;8.00;99.90;;;;;;4998119;28;20590;-49
2021/12/20 12:13:58;;;;;;;28.20;15.10;;;8.10;99.90;;;;;;5002511;28;20567;-51
2021/12/20 12:16:45;;;;;;;24.50;14.83;;;8.30;99.90;;;;;;5002582;28;20486;-49
2021/12/20 12:19:12;;;;;;;28.43;16.03;;;8.60;99.90;;;;;;5001592;28;20965;-48
2021/12/20 12:21:40;;;;;;;22.63;14.43;;;8.80;99.90;;;;;;5006782;28;20440;-48
2021/12/20 12:24:08;;;;;;;22.40;13.60;;;9.00;99.90;;;;;;5002565;28;20436;-49
2021/12/20 12:26:43;;;;;;;23.93;15.10;;;9.60;99.90;;;;;;5001336;28;20460;-50
2021/12/20 12:29:17;;;;;;;24.10;14.10;;;9.90;99.90;;;;;;5002057;28;20429;-51
2021/12/20 12:31:49;;;;;;;22.90;12.60;;;9.90;99.90;;;;;;5001877;28;20462;-53
2021/12/20 12:34:16;;;;;;;23.57;12.60;;;10.20;99.90;;;;;;4997044;28;20432;-50
2021/12/20 12:36:42;;;;;;;17.50;11.93;;;10.50;99.90;;;;;;5003862;28;20534;-51
2021/12/20 12:39:10;;;;;;;17.00;11.53;;;10.70;99.90;;;;;;5004414;28;20877;-50
2021/12/20 12:41:47;;;;;;;22.07;12.63;;;10.80;99.90;;;;;;5002145;28;20878;-49
2021/12/20 12:44:24;;;;;;;17.83;11.87;;;11.00;99.90;;;;;;4996776;28;20439;-47
2021/12/20 12:47:05;;;;;;;17.60;11.20;;;11.30;99.90;;;;;;5001540;28;20509;-46
2021/12/20 12:49:33;;;;;;;16.53;11.40;;;;;;;;;;5003692;28;20460;-48
2021/12/20 12:52:05;;;;;;;23.00;11.00;;;12.00;99.90;;;;;;4999162;28;20522;-52
2021/12/20 12:54:33;;;;;;;15.50;10.73;;;11.90;99.90;;;;;;4989303;28;20460;-51
2021/12/20 12:57:11;;;;;;;19.63;10.90;;;11.70;99.90;;;;;;5003008;28;20554;-47
2021/12/20 12:59:55;;;;;;;14.40;11.37;;;11.40;99.90;;;;;;5003647;28;20523;-46
2021/12/20 13:02:25;;;;;;;18.53;10.07;;;10.90;99.90;;;;;;5007045;28;20442;-48
2021/12/20 13:04:53;;;;;;;15.57;10.30;;;10.50;99.90;;;;;;5000624;28;20419;-52